sensor_id;sensor_type;location;lat;lon;timestamp;P1;durP1;ratioP1;P2;durP2;ratioP2
2610;SDS011;5612;51.134;17.058;2023-12-20T00:00:05;15.57;;;14.07;;
2610;SDS011;5612;51.134;17.058;2023-12-20T00:02:34;13.47;;;12.17;;
2610;SDS011;5612;51.134;17.058;2023-12-20T00:05:05;14.47;;;13.00;;
2610;SDS011;5612;51.134;17.058;2023-12-20T00:07:35;14.80;;;12.87;;
2610;SDS011;5612;51.134;17.058;2023-12-20T00:10:04;14.60;;;11.47;;
2610;SDS011;5612;51.134;17.058;2023-12-20T00:12:34;14.40;;;12.07;;
2610;SDS011;5612;51.134;17.058;2023-12-20T00:15:03;12.33;;;11.13;;
2610;SDS011;5612;51.134;17.058;2023-12-20T00:17:32;14.40;;;13.00;;
2610;SDS011;5612;51.134;17.058;2023-12-20T00:20:01;14.53;;;12.53;;
2610;SDS011;5612;51.134;17.058;2023-12-20T00:22:32;15.30;;;13.80;;
2610;SDS011;5612;51.134;17.058;2023-12-20T00:25:00;15.37;;;14.00;;
2610;SDS011;5612;51.134;17.058;2023-12-20T00:27:29;17.73;;;15.10;;
2610;SDS011;5612;51.134;17.058;2023-12-20T00:29:58;15.93;;;14.53;;
2610;SDS011;5612;51.134;17.058;2023-12-20T00:32:27;16.93;;;14.90;;
2610;SDS011;5612;51.134;17.058;2023-12-20T00:34:55;15.30;;;13.67;;
2610;SDS011;5612;51.134;17.058;2023-12-20T00:37:24;20.37;;;14.87;;
2610;SDS011;5612;51.134;17.058;2023-12-20T00:39:54;17.30;;;15.13;;
2610;SDS011;5612;51.134;17.058;2023-12-20T00:42:23;21.63;;;18.10;;
2610;SDS011;5612;51.134;17.058;2023-12-20T00:44:52;20.50;;;14.27;;
2610;SDS011;5612;51.134;17.058;2023-12-20T00:47:20;14.70;;;12.57;;
2610;SDS011;5612;51.134;17.058;2023-12-20T00:49:49;12.93;;;11.63;;
2610;SDS011;5612;51.134;17.058;2023-12-20T00:52:18;12.17;;;11.07;;
2610;SDS011;5612;51.134;17.058;2023-12-20T00:54:49;13.90;;;11.53;;
2610;SDS011;5612;51.134;17.058;2023-12-20T00:57:20;15.93;;;11.60;;
2610;SDS011;5612;51.134;17.058;2023-12-20T00:59:48;13.63;;;12.43;;
2610;SDS011;5612;51.134;17.058;2023-12-20T01:02:17;12.63;;;11.33;;
2610;SDS011;5612;51.134;17.058;2023-12-20T01:04:46;13.57;;;12.00;;
2610;SDS011;5612;51.134;17.058;2023-12-20T01:07:15;13.33;;;12.03;;
2610;SDS011;5612;51.134;17.058;2023-12-20T01:09:44;10.93;;;9.90;;
2610;SDS011;5612;51.134;17.058;2023-12-20T01:12:12;10.97;;;9.90;;
2610;SDS011;5612;51.134;17.058;2023-12-20T01:14:43;11.47;;;10.27;;
2610;SDS011;5612;51.134;17.058;2023-12-20T01:17:11;12.83;;;11.50;;
2610;SDS011;5612;51.134;17.058;2023-12-20T01:19:40;12.37;;;11.17;;
2610;SDS011;5612;51.134;17.058;2023-12-20T01:22:09;10.10;;;9.27;;
2610;SDS011;5612;51.134;17.058;2023-12-20T01:24:38;11.50;;;10.50;;
2610;SDS011;5612;51.134;17.058;2023-12-20T01:27:07;10.60;;;9.60;;
2610;SDS011;5612;51.134;17.058;2023-12-20T01:29:35;11.67;;;10.47;;
2610;SDS011;5612;51.134;17.058;2023-12-20T01:32:06;11.27;;;10.27;;
2610;SDS011;5612;51.134;17.058;2023-12-20T01:34:35;13.53;;;10.40;;
2610;SDS011;5612;51.134;17.058;2023-12-20T01:37:04;12.67;;;11.10;;
2610;SDS011;5612;51.134;17.058;2023-12-20T01:39:33;12.10;;;11.00;;
2610;SDS011;5612;51.134;17.058;2023-12-20T01:42:01;12.17;;;10.97;;
2610;SDS011;5612;51.134;17.058;2023-12-20T01:44:30;12.80;;;10.13;;
2610;SDS011;5612;51.134;17.058;2023-12-20T01:46:59;10.57;;;9.60;;
2610;SDS011;5612;51.134;17.058;2023-12-20T01:49:30;10.43;;;9.43;;
2610;SDS011;5612;51.134;17.058;2023-12-20T01:51:59;11.03;;;10.03;;
2610;SDS011;5612;51.134;17.058;2023-12-20T01:54:28;11.37;;;8.97;;
2610;SDS011;5612;51.134;17.058;2023-12-20T01:56:57;11.50;;;10.40;;
2610;SDS011;5612;51.134;17.058;2023-12-20T01:59:26;12.40;;;9.83;;
2610;SDS011;5612;51.134;17.058;2023-12-20T02:01:56;11.80;;;10.60;;
2610;SDS011;5612;51.134;17.058;2023-12-20T02:04:25;11.63;;;10.53;;
2610;SDS011;5612;51.134;17.058;2023-12-20T02:06:56;11.97;;;10.80;;
2610;SDS011;5612;51.134;17.058;2023-12-20T02:09:27;11.37;;;10.30;;
2610;SDS011;5612;51.134;17.058;2023-12-20T02:11:57;10.43;;;9.50;;
2610;SDS011;5612;51.134;17.058;2023-12-20T02:14:25;12.17;;;10.93;;
2610;SDS011;5612;51.134;17.058;2023-12-20T02:16:54;10.97;;;10.00;;
2610;SDS011;5612;51.134;17.058;2023-12-20T02:19:22;9.90;;;8.90;;
2610;SDS011;5612;51.134;17.058;2023-12-20T02:22:06;9.20;;;8.30;;
2610;SDS011;5612;51.134;17.058;2023-12-20T02:24:36;8.50;;;7.80;;
2610;SDS011;5612;51.134;17.058;2023-12-20T02:27:05;8.73;;;7.93;;
2610;SDS011;5612;51.134;17.058;2023-12-20T02:29:34;8.47;;;7.67;;
2610;SDS011;5612;51.134;17.058;2023-12-20T02:32:03;8.73;;;7.90;;
2610;SDS011;5612;51.134;17.058;2023-12-20T02:34:33;8.37;;;7.67;;
2610;SDS011;5612;51.134;17.058;2023-12-20T02:37:01;6.87;;;6.27;;
2610;SDS011;5612;51.134;17.058;2023-12-20T02:39:32;7.70;;;6.67;;
2610;SDS011;5612;51.134;17.058;2023-12-20T02:42:01;7.53;;;6.97;;
2610;SDS011;5612;51.134;17.058;2023-12-20T02:44:29;6.90;;;6.27;;
2610;SDS011;5612;51.134;17.058;2023-12-20T02:46:58;6.03;;;5.53;;
2610;SDS011;5612;51.134;17.058;2023-12-20T02:49:27;6.47;;;5.77;;
2610;SDS011;5612;51.134;17.058;2023-12-20T02:51:56;5.23;;;4.73;;
2610;SDS011;5612;51.134;17.058;2023-12-20T02:54:24;5.43;;;5.03;;
2610;SDS011;5612;51.134;17.058;2023-12-20T02:56:54;5.13;;;4.73;;
2610;SDS011;5612;51.134;17.058;2023-12-20T02:59:23;5.80;;;5.30;;
2610;SDS011;5612;51.134;17.058;2023-12-20T03:01:52;6.00;;;5.50;;
2610;SDS011;5612;51.134;17.058;2023-12-20T03:04:21;4.93;;;4.53;;
2610;SDS011;5612;51.134;17.058;2023-12-20T03:06:49;5.70;;;5.20;;
2610;SDS011;5612;51.134;17.058;2023-12-20T03:09:18;5.47;;;4.83;;
2610;SDS011;5612;51.134;17.058;2023-12-20T03:11:47;4.80;;;4.40;;
2610;SDS011;5612;51.134;17.058;2023-12-20T03:14:17;6.47;;;5.97;;
2610;SDS011;5612;51.134;17.058;2023-12-20T03:16:46;5.67;;;5.17;;
2610;SDS011;5612;51.134;17.058;2023-12-20T03:19:17;6.00;;;5.40;;
2610;SDS011;5612;51.134;17.058;2023-12-20T03:21:47;5.30;;;4.90;;
2610;SDS011;5612;51.134;17.058;2023-12-20T03:24:15;7.90;;;5.20;;
2610;SDS011;5612;51.134;17.058;2023-12-20T03:26:44;6.03;;;5.43;;
2610;SDS011;5612;51.134;17.058;2023-12-20T03:29:13;6.93;;;4.97;;
2610;SDS011;5612;51.134;17.058;2023-12-20T03:31:43;5.30;;;4.80;;
2610;SDS011;5612;51.134;17.058;2023-12-20T03:34:12;5.10;;;4.60;;
2610;SDS011;5612;51.134;17.058;2023-12-20T03:36:41;3.70;;;3.40;;
2610;SDS011;5612;51.134;17.058;2023-12-20T03:39:09;3.90;;;3.60;;
2610;SDS011;5612;51.134;17.058;2023-12-20T03:41:38;3.93;;;3.53;;
2610;SDS011;5612;51.134;17.058;2023-12-20T03:44:07;3.80;;;3.50;;
2610;SDS011;5612;51.134;17.058;2023-12-20T03:46:35;3.27;;;2.90;;
2610;SDS011;5612;51.134;17.058;2023-12-20T03:49:05;3.80;;;3.20;;
2610;SDS011;5612;51.134;17.058;2023-12-20T03:51:34;5.80;;;4.53;;
2610;SDS011;5612;51.134;17.058;2023-12-20T03:54:03;3.53;;;2.93;;
2610;SDS011;5612;51.134;17.058;2023-12-20T03:56:32;2.43;;;2.23;;
2610;SDS011;5612;51.134;17.058;2023-12-20T03:59:00;2.20;;;2.10;;
2610;SDS011;5612;51.134;17.058;2023-12-20T04:01:29;2.00;;;1.90;;
2610;SDS011;5612;51.134;17.058;2023-12-20T04:03:58;2.00;;;1.90;;
2610;SDS011;5612;51.134;17.058;2023-12-20T04:06:27;2.63;;;2.43;;
2610;SDS011;5612;51.134;17.058;2023-12-20T04:08:56;2.70;;;2.57;;
2610;SDS011;5612;51.134;17.058;2023-12-20T04:11:25;3.13;;;2.83;;
2610;SDS011;5612;51.134;17.058;2023-12-20T04:13:54;5.57;;;2.60;;
2610;SDS011;5612;51.134;17.058;2023-12-20T04:16:22;2.20;;;2.10;;
2610;SDS011;5612;51.134;17.058;2023-12-20T04:18:51;2.60;;;2.30;;
2610;SDS011;5612;51.134;17.058;2023-12-20T04:21:20;2.83;;;2.63;;
2610;SDS011;5612;51.134;17.058;2023-12-20T04:23:50;2.97;;;2.77;;
2610;SDS011;5612;51.134;17.058;2023-12-20T04:26:18;2.67;;;2.47;;
2610;SDS011;5612;51.134;17.058;2023-12-20T04:28:47;2.70;;;2.50;;
2610;SDS011;5612;51.134;17.058;2023-12-20T04:31:20;2.50;;;2.30;;
2610;SDS011;5612;51.134;17.058;2023-12-20T04:33:48;2.60;;;2.40;;
2610;SDS011;5612;51.134;17.058;2023-12-20T04:36:17;2.80;;;2.43;;
2610;SDS011;5612;51.134;17.058;2023-12-20T04:38:46;2.60;;;2.40;;
2610;SDS011;5612;51.134;17.058;2023-12-20T04:41:16;2.50;;;2.40;;
2610;SDS011;5612;51.134;17.058;2023-12-20T04:43:45;2.80;;;2.60;;
2610;SDS011;5612;51.134;17.058;2023-12-20T04:46:14;2.87;;;2.67;;
2610;SDS011;5612;51.134;17.058;2023-12-20T04:48:42;3.53;;;3.13;;
2610;SDS011;5612;51.134;17.058;2023-12-20T04:51:11;3.17;;;2.97;;
2610;SDS011;5612;51.134;17.058;2023-12-20T04:53:40;3.70;;;2.93;;
2610;SDS011;5612;51.134;17.058;2023-12-20T04:56:09;3.23;;;2.90;;
2610;SDS011;5612;51.134;17.058;2023-12-20T04:58:39;3.37;;;3.07;;
2610;SDS011;5612;51.134;17.058;2023-12-20T05:01:08;3.53;;;3.03;;
2610;SDS011;5612;51.134;17.058;2023-12-20T05:03:37;2.83;;;2.63;;
2610;SDS011;5612;51.134;17.058;2023-12-20T05:06:06;3.00;;;2.77;;
2610;SDS011;5612;51.134;17.058;2023-12-20T05:08:35;3.17;;;2.97;;
2610;SDS011;5612;51.134;17.058;2023-12-20T05:11:03;2.80;;;2.60;;
2610;SDS011;5612;51.134;17.058;2023-12-20T05:13:32;2.37;;;2.27;;
2610;SDS011;5612;51.134;17.058;2023-12-20T05:16:14;2.90;;;2.70;;
2610;SDS011;5612;51.134;17.058;2023-12-20T05:18:45;2.87;;;2.63;;
2610;SDS011;5612;51.134;17.058;2023-12-20T05:21:16;2.70;;;2.50;;
2610;SDS011;5612;51.134;17.058;2023-12-20T05:23:45;2.77;;;2.57;;
2610;SDS011;5612;51.134;17.058;2023-12-20T05:26:13;3.30;;;2.20;;
2610;SDS011;5612;51.134;17.058;2023-12-20T05:28:42;2.47;;;2.27;;
2610;SDS011;5612;51.134;17.058;2023-12-20T05:31:11;2.20;;;2.10;;
2610;SDS011;5612;51.134;17.058;2023-12-20T05:33:41;2.10;;;2.00;;
2610;SDS011;5612;51.134;17.058;2023-12-20T05:36:10;1.77;;;1.67;;
2610;SDS011;5612;51.134;17.058;2023-12-20T05:38:40;2.40;;;2.20;;
2610;SDS011;5612;51.134;17.058;2023-12-20T05:41:09;2.33;;;2.23;;
2610;SDS011;5612;51.134;17.058;2023-12-20T05:43:38;2.73;;;2.60;;
2610;SDS011;5612;51.134;17.058;2023-12-20T05:46:06;3.30;;;3.10;;
2610;SDS011;5612;51.134;17.058;2023-12-20T05:48:35;4.27;;;3.87;;
2610;SDS011;5612;51.134;17.058;2023-12-20T05:51:05;3.03;;;2.70;;
2610;SDS011;5612;51.134;17.058;2023-12-20T05:53:37;3.27;;;2.97;;
2610;SDS011;5612;51.134;17.058;2023-12-20T05:56:06;2.80;;;2.60;;
2610;SDS011;5612;51.134;17.058;2023-12-20T05:58:35;3.23;;;2.93;;
2610;SDS011;5612;51.134;17.058;2023-12-20T06:01:04;2.90;;;2.70;;
2610;SDS011;5612;51.134;17.058;2023-12-20T06:03:34;2.80;;;2.60;;
2610;SDS011;5612;51.134;17.058;2023-12-20T06:06:07;3.40;;;3.10;;
2610;SDS011;5612;51.134;17.058;2023-12-20T06:08:42;4.37;;;3.80;;
2610;SDS011;5612;51.134;17.058;2023-12-20T06:11:11;4.10;;;3.70;;
2610;SDS011;5612;51.134;17.058;2023-12-20T06:13:40;4.17;;;3.77;;
2610;SDS011;5612;51.134;17.058;2023-12-20T06:16:09;4.77;;;4.37;;
2610;SDS011;5612;51.134;17.058;2023-12-20T06:18:38;4.93;;;4.53;;
2610;SDS011;5612;51.134;17.058;2023-12-20T06:21:08;6.73;;;4.13;;
2610;SDS011;5612;51.134;17.058;2023-12-20T06:23:39;4.63;;;4.03;;
2610;SDS011;5612;51.134;17.058;2023-12-20T06:26:08;4.17;;;3.87;;
2610;SDS011;5612;51.134;17.058;2023-12-20T06:28:37;4.43;;;4.03;;
2610;SDS011;5612;51.134;17.058;2023-12-20T06:31:07;4.00;;;3.67;;
2610;SDS011;5612;51.134;17.058;2023-12-20T06:33:36;3.90;;;3.60;;
2610;SDS011;5612;51.134;17.058;2023-12-20T06:36:10;3.40;;;3.10;;
2610;SDS011;5612;51.134;17.058;2023-12-20T06:38:40;3.20;;;3.00;;
2610;SDS011;5612;51.134;17.058;2023-12-20T06:41:12;2.67;;;2.47;;
2610;SDS011;5612;51.134;17.058;2023-12-20T06:43:42;2.73;;;2.53;;
2610;SDS011;5612;51.134;17.058;2023-12-20T06:46:16;3.23;;;3.00;;
2610;SDS011;5612;51.134;17.058;2023-12-20T06:48:45;3.10;;;2.90;;
2610;SDS011;5612;51.134;17.058;2023-12-20T06:51:16;2.43;;;2.33;;
2610;SDS011;5612;51.134;17.058;2023-12-20T06:53:46;3.53;;;3.03;;
2610;SDS011;5612;51.134;17.058;2023-12-20T06:56:15;3.43;;;3.13;;
2610;SDS011;5612;51.134;17.058;2023-12-20T06:58:45;3.80;;;3.50;;
2610;SDS011;5612;51.134;17.058;2023-12-20T07:01:14;3.13;;;2.90;;
2610;SDS011;5612;51.134;17.058;2023-12-20T07:03:44;2.97;;;2.77;;
2610;SDS011;5612;51.134;17.058;2023-12-20T07:06:13;3.50;;;3.20;;
2610;SDS011;5612;51.134;17.058;2023-12-20T07:08:44;3.40;;;3.10;;
2610;SDS011;5612;51.134;17.058;2023-12-20T07:11:12;3.30;;;3.10;;
2610;SDS011;5612;51.134;17.058;2023-12-20T07:13:41;2.90;;;2.70;;
2610;SDS011;5612;51.134;17.058;2023-12-20T07:16:09;3.53;;;3.20;;
2610;SDS011;5612;51.134;17.058;2023-12-20T07:18:38;3.37;;;3.13;;
2610;SDS011;5612;51.134;17.058;2023-12-20T07:21:07;4.40;;;3.40;;
2610;SDS011;5612;51.134;17.058;2023-12-20T07:23:37;3.80;;;3.40;;
2610;SDS011;5612;51.134;17.058;2023-12-20T07:26:07;3.40;;;3.13;;
2610;SDS011;5612;51.134;17.058;2023-12-20T07:28:36;3.30;;;3.10;;
2610;SDS011;5612;51.134;17.058;2023-12-20T07:31:05;3.00;;;2.80;;
2610;SDS011;5612;51.134;17.058;2023-12-20T07:33:35;2.37;;;2.17;;
2610;SDS011;5612;51.134;17.058;2023-12-20T07:36:05;3.33;;;2.20;;
2610;SDS011;5612;51.134;17.058;2023-12-20T07:38:35;2.30;;;2.20;;
2610;SDS011;5612;51.134;17.058;2023-12-20T07:41:05;2.43;;;2.07;;
2610;SDS011;5612;51.134;17.058;2023-12-20T07:43:34;1.70;;;1.60;;
2610;SDS011;5612;51.134;17.058;2023-12-20T07:46:05;2.00;;;1.90;;
2610;SDS011;5612;51.134;17.058;2023-12-20T07:48:35;1.80;;;1.70;;
2610;SDS011;5612;51.134;17.058;2023-12-20T07:51:04;2.37;;;2.17;;
2610;SDS011;5612;51.134;17.058;2023-12-20T07:53:35;2.07;;;1.87;;
2610;SDS011;5612;51.134;17.058;2023-12-20T07:56:14;1.73;;;1.57;;
2610;SDS011;5612;51.134;17.058;2023-12-20T07:58:43;2.20;;;2.00;;
2610;SDS011;5612;51.134;17.058;2023-12-20T08:01:19;2.10;;;1.77;;
2610;SDS011;5612;51.134;17.058;2023-12-20T08:03:49;2.20;;;2.03;;
2610;SDS011;5612;51.134;17.058;2023-12-20T08:06:18;2.13;;;2.03;;
2610;SDS011;5612;51.134;17.058;2023-12-20T08:08:47;2.60;;;2.00;;
2610;SDS011;5612;51.134;17.058;2023-12-20T08:11:28;2.20;;;2.00;;
2610;SDS011;5612;51.134;17.058;2023-12-20T08:13:57;2.43;;;2.23;;
2610;SDS011;5612;51.134;17.058;2023-12-20T08:16:26;2.00;;;1.90;;
2610;SDS011;5612;51.134;17.058;2023-12-20T08:18:54;3.00;;;2.13;;
2610;SDS011;5612;51.134;17.058;2023-12-20T08:21:23;2.00;;;1.87;;
2610;SDS011;5612;51.134;17.058;2023-12-20T08:23:52;2.40;;;2.07;;
2610;SDS011;5612;51.134;17.058;2023-12-20T08:26:21;1.70;;;1.53;;
2610;SDS011;5612;51.134;17.058;2023-12-20T08:28:52;1.87;;;1.73;;
2610;SDS011;5612;51.134;17.058;2023-12-20T08:31:23;1.60;;;1.50;;
2610;SDS011;5612;51.134;17.058;2023-12-20T08:33:52;1.67;;;1.57;;
2610;SDS011;5612;51.134;17.058;2023-12-20T08:36:21;1.57;;;1.47;;
2610;SDS011;5612;51.134;17.058;2023-12-20T08:38:50;2.60;;;1.90;;
2610;SDS011;5612;51.134;17.058;2023-12-20T08:41:19;2.60;;;2.40;;
2610;SDS011;5612;51.134;17.058;2023-12-20T08:43:48;2.33;;;2.10;;
2610;SDS011;5612;51.134;17.058;2023-12-20T08:46:19;2.40;;;2.17;;
2610;SDS011;5612;51.134;17.058;2023-12-20T08:48:47;1.87;;;1.73;;
2610;SDS011;5612;51.134;17.058;2023-12-20T08:51:17;2.43;;;2.23;;
2610;SDS011;5612;51.134;17.058;2023-12-20T08:53:46;2.20;;;2.03;;
2610;SDS011;5612;51.134;17.058;2023-12-20T08:56:14;2.60;;;2.40;;
2610;SDS011;5612;51.134;17.058;2023-12-20T08:58:44;2.50;;;2.30;;
2610;SDS011;5612;51.134;17.058;2023-12-20T09:01:13;3.83;;;2.60;;
2610;SDS011;5612;51.134;17.058;2023-12-20T09:03:44;2.53;;;2.33;;
2610;SDS011;5612;51.134;17.058;2023-12-20T09:06:14;2.10;;;2.00;;
2610;SDS011;5612;51.134;17.058;2023-12-20T09:08:45;2.33;;;2.13;;
2610;SDS011;5612;51.134;17.058;2023-12-20T09:11:14;1.97;;;1.87;;
2610;SDS011;5612;51.134;17.058;2023-12-20T09:13:44;2.10;;;2.00;;
2610;SDS011;5612;51.134;17.058;2023-12-20T09:16:14;2.13;;;2.03;;
2610;SDS011;5612;51.134;17.058;2023-12-20T09:18:45;1.97;;;1.87;;
2610;SDS011;5612;51.134;17.058;2023-12-20T09:21:15;2.00;;;1.90;;
2610;SDS011;5612;51.134;17.058;2023-12-20T09:23:45;1.60;;;1.50;;
2610;SDS011;5612;51.134;17.058;2023-12-20T09:26:15;2.20;;;1.87;;
2610;SDS011;5612;51.134;17.058;2023-12-20T09:28:45;2.50;;;2.30;;
2610;SDS011;5612;51.134;17.058;2023-12-20T09:31:15;1.97;;;1.87;;
2610;SDS011;5612;51.134;17.058;2023-12-20T09:33:46;1.90;;;1.80;;
2610;SDS011;5612;51.134;17.058;2023-12-20T09:36:16;1.80;;;1.70;;
2610;SDS011;5612;51.134;17.058;2023-12-20T09:38:46;2.70;;;2.50;;
2610;SDS011;5612;51.134;17.058;2023-12-20T09:41:17;2.03;;;1.93;;
2610;SDS011;5612;51.134;17.058;2023-12-20T09:43:47;2.87;;;2.50;;
2610;SDS011;5612;51.134;17.058;2023-12-20T09:46:19;3.70;;;3.40;;
2610;SDS011;5612;51.134;17.058;2023-12-20T09:48:58;3.67;;;2.93;;
2610;SDS011;5612;51.134;17.058;2023-12-20T09:51:30;3.83;;;3.50;;
2610;SDS011;5612;51.134;17.058;2023-12-20T09:54:00;3.53;;;3.23;;
2610;SDS011;5612;51.134;17.058;2023-12-20T09:56:33;4.17;;;3.47;;
2610;SDS011;5612;51.134;17.058;2023-12-20T09:59:03;4.33;;;3.93;;
2610;SDS011;5612;51.134;17.058;2023-12-20T10:01:33;4.47;;;4.07;;
2610;SDS011;5612;51.134;17.058;2023-12-20T10:04:06;4.60;;;4.17;;
2610;SDS011;5612;51.134;17.058;2023-12-20T10:06:55;4.27;;;3.90;;
2610;SDS011;5612;51.134;17.058;2023-12-20T10:09:28;5.13;;;4.37;;
2610;SDS011;5612;51.134;17.058;2023-12-20T10:11:59;3.10;;;2.90;;
2610;SDS011;5612;51.134;17.058;2023-12-20T10:14:29;4.10;;;3.77;;
2610;SDS011;5612;51.134;17.058;2023-12-20T10:17:02;4.20;;;3.80;;
2610;SDS011;5612;51.134;17.058;2023-12-20T10:19:34;9.67;;;7.97;;
2610;SDS011;5612;51.134;17.058;2023-12-20T10:22:04;4.90;;;4.07;;
2610;SDS011;5612;51.134;17.058;2023-12-20T10:24:43;5.50;;;3.10;;
2610;SDS011;5612;51.134;17.058;2023-12-20T10:27:48;3.43;;;3.23;;
2610;SDS011;5612;51.134;17.058;2023-12-20T10:30:59;3.70;;;2.87;;
2610;SDS011;5612;51.134;17.058;2023-12-20T10:33:32;2.93;;;2.73;;
2610;SDS011;5612;51.134;17.058;2023-12-20T10:36:04;2.63;;;2.43;;
2610;SDS011;5612;51.134;17.058;2023-12-20T10:38:35;3.53;;;3.03;;
2610;SDS011;5612;51.134;17.058;2023-12-20T10:41:39;4.30;;;2.70;;
2610;SDS011;5612;51.134;17.058;2023-12-20T10:44:41;4.60;;;3.73;;
2610;SDS011;5612;51.134;17.058;2023-12-20T10:47:14;2.87;;;2.33;;
2610;SDS011;5612;51.134;17.058;2023-12-20T10:49:47;3.30;;;2.57;;
2610;SDS011;5612;51.134;17.058;2023-12-20T10:52:19;2.67;;;2.50;;
2610;SDS011;5612;51.134;17.058;2023-12-20T10:54:51;2.40;;;2.30;;
2610;SDS011;5612;51.134;17.058;2023-12-20T10:57:20;3.67;;;3.00;;
2610;SDS011;5612;51.134;17.058;2023-12-20T10:59:50;3.63;;;2.53;;
2610;SDS011;5612;51.134;17.058;2023-12-20T11:02:22;2.80;;;2.20;;
2610;SDS011;5612;51.134;17.058;2023-12-20T11:04:53;3.37;;;2.30;;
2610;SDS011;5612;51.134;17.058;2023-12-20T11:07:31;2.50;;;2.10;;
2610;SDS011;5612;51.134;17.058;2023-12-20T11:10:09;2.57;;;2.40;;
2610;SDS011;5612;51.134;17.058;2023-12-20T11:12:44;2.57;;;2.37;;
2610;SDS011;5612;51.134;17.058;2023-12-20T11:15:17;2.60;;;2.00;;
2610;SDS011;5612;51.134;17.058;2023-12-20T11:17:47;2.50;;;2.07;;
2610;SDS011;5612;51.134;17.058;2023-12-20T11:20:23;2.13;;;1.93;;
2610;SDS011;5612;51.134;17.058;2023-12-20T11:22:54;2.20;;;2.10;;
2610;SDS011;5612;51.134;17.058;2023-12-20T11:25:23;5.40;;;2.67;;
2610;SDS011;5612;51.134;17.058;2023-12-20T11:28:08;3.93;;;2.30;;
2610;SDS011;5612;51.134;17.058;2023-12-20T11:30:42;2.73;;;2.10;;
2610;SDS011;5612;51.134;17.058;2023-12-20T11:33:15;2.23;;;2.03;;
2610;SDS011;5612;51.134;17.058;2023-12-20T11:35:45;4.43;;;2.10;;
2610;SDS011;5612;51.134;17.058;2023-12-20T11:38:15;3.13;;;2.07;;
2610;SDS011;5612;51.134;17.058;2023-12-20T11:40:44;2.30;;;1.60;;
2610;SDS011;5612;51.134;17.058;2023-12-20T11:43:29;2.77;;;2.63;;
2610;SDS011;5612;51.134;17.058;2023-12-20T11:46:02;3.80;;;1.83;;
2610;SDS011;5612;51.134;17.058;2023-12-20T11:48:37;2.50;;;1.73;;
2610;SDS011;5612;51.134;17.058;2023-12-20T11:51:09;2.90;;;1.63;;
2610;SDS011;5612;51.134;17.058;2023-12-20T11:53:40;2.40;;;1.80;;
2610;SDS011;5612;51.134;17.058;2023-12-20T11:56:10;3.03;;;1.50;;
2610;SDS011;5612;51.134;17.058;2023-12-20T11:58:39;1.73;;;1.60;;
2610;SDS011;5612;51.134;17.058;2023-12-20T12:01:08;2.93;;;2.00;;
2610;SDS011;5612;51.134;17.058;2023-12-20T12:03:37;5.30;;;2.30;;
2610;SDS011;5612;51.134;17.058;2023-12-20T12:06:06;3.43;;;2.10;;
2610;SDS011;5612;51.134;17.058;2023-12-20T12:08:35;1.50;;;1.40;;
2610;SDS011;5612;51.134;17.058;2023-12-20T12:11:06;5.40;;;2.40;;
2610;SDS011;5612;51.134;17.058;2023-12-20T12:13:35;2.30;;;1.70;;
2610;SDS011;5612;51.134;17.058;2023-12-20T12:16:04;1.10;;;1.10;;
2610;SDS011;5612;51.134;17.058;2023-12-20T12:18:34;4.73;;;1.83;;
2610;SDS011;5612;51.134;17.058;2023-12-20T12:21:03;4.40;;;2.30;;
2610;SDS011;5612;51.134;17.058;2023-12-20T12:23:41;2.97;;;2.13;;
2610;SDS011;5612;51.134;17.058;2023-12-20T12:26:11;2.03;;;1.93;;
2610;SDS011;5612;51.134;17.058;2023-12-20T12:28:40;2.10;;;1.40;;
2610;SDS011;5612;51.134;17.058;2023-12-20T12:31:12;2.37;;;2.17;;
2610;SDS011;5612;51.134;17.058;2023-12-20T12:33:43;3.43;;;1.73;;
2610;SDS011;5612;51.134;17.058;2023-12-20T12:36:12;2.50;;;1.53;;
2610;SDS011;5612;51.134;17.058;2023-12-20T12:38:44;2.20;;;2.00;;
2610;SDS011;5612;51.134;17.058;2023-12-20T12:41:14;2.40;;;1.80;;
2610;SDS011;5612;51.134;17.058;2023-12-20T12:43:43;1.77;;;1.67;;
2610;SDS011;5612;51.134;17.058;2023-12-20T12:46:12;2.63;;;2.03;;
2610;SDS011;5612;51.134;17.058;2023-12-20T12:48:41;2.67;;;2.20;;
2610;SDS011;5612;51.134;17.058;2023-12-20T12:51:12;2.10;;;1.50;;
2610;SDS011;5612;51.134;17.058;2023-12-20T12:53:41;1.87;;;1.77;;
2610;SDS011;5612;51.134;17.058;2023-12-20T12:56:10;2.10;;;1.97;;
2610;SDS011;5612;51.134;17.058;2023-12-20T12:58:43;2.43;;;2.00;;
2610;SDS011;5612;51.134;17.058;2023-12-20T13:01:13;3.00;;;2.50;;
2610;SDS011;5612;51.134;17.058;2023-12-20T13:03:42;3.50;;;2.67;;
2610;SDS011;5612;51.134;17.058;2023-12-20T13:06:11;2.50;;;2.07;;
2610;SDS011;5612;51.134;17.058;2023-12-20T13:08:40;3.40;;;2.27;;
2610;SDS011;5612;51.134;17.058;2023-12-20T13:11:09;4.93;;;2.10;;
2610;SDS011;5612;51.134;17.058;2023-12-20T13:13:38;3.63;;;2.17;;
2610;SDS011;5612;51.134;17.058;2023-12-20T13:16:08;2.20;;;2.00;;
2610;SDS011;5612;51.134;17.058;2023-12-20T13:18:37;4.83;;;2.27;;
2610;SDS011;5612;51.134;17.058;2023-12-20T13:21:09;2.23;;;1.70;;
2610;SDS011;5612;51.134;17.058;2023-12-20T13:23:38;4.77;;;1.63;;
2610;SDS011;5612;51.134;17.058;2023-12-20T13:26:07;2.10;;;1.93;;
2610;SDS011;5612;51.134;17.058;2023-12-20T13:28:35;1.73;;;1.63;;
2610;SDS011;5612;51.134;17.058;2023-12-20T13:31:04;1.93;;;1.60;;
2610;SDS011;5612;51.134;17.058;2023-12-20T13:33:37;3.60;;;2.00;;
2610;SDS011;5612;51.134;17.058;2023-12-20T13:36:06;1.87;;;1.73;;
2610;SDS011;5612;51.134;17.058;2023-12-20T13:38:35;4.13;;;2.37;;
2610;SDS011;5612;51.134;17.058;2023-12-20T13:41:04;3.50;;;2.40;;
2610;SDS011;5612;51.134;17.058;2023-12-20T13:43:33;3.73;;;2.73;;
2610;SDS011;5612;51.134;17.058;2023-12-20T13:46:03;1.93;;;1.73;;
2610;SDS011;5612;51.134;17.058;2023-12-20T13:48:32;3.03;;;2.00;;
2610;SDS011;5612;51.134;17.058;2023-12-20T13:51:02;4.20;;;2.50;;
2610;SDS011;5612;51.134;17.058;2023-12-20T13:53:32;5.13;;;2.93;;
2610;SDS011;5612;51.134;17.058;2023-12-20T13:56:01;4.03;;;2.37;;
2610;SDS011;5612;51.134;17.058;2023-12-20T13:58:30;3.20;;;2.07;;
2610;SDS011;5612;51.134;17.058;2023-12-20T14:01:02;2.60;;;2.20;;
2610;SDS011;5612;51.134;17.058;2023-12-20T14:03:40;4.20;;;2.03;;
2610;SDS011;5612;51.134;17.058;2023-12-20T14:06:12;5.10;;;2.10;;
2610;SDS011;5612;51.134;17.058;2023-12-20T14:08:42;7.77;;;2.83;;
2610;SDS011;5612;51.134;17.058;2023-12-20T14:11:10;6.93;;;5.33;;
2610;SDS011;5612;51.134;17.058;2023-12-20T14:13:42;8.37;;;5.80;;
2610;SDS011;5612;51.134;17.058;2023-12-20T14:16:11;6.40;;;5.17;;
2610;SDS011;5612;51.134;17.058;2023-12-20T14:18:41;3.77;;;2.70;;
2610;SDS011;5612;51.134;17.058;2023-12-20T14:21:10;4.90;;;2.80;;
2610;SDS011;5612;51.134;17.058;2023-12-20T14:23:40;3.03;;;2.20;;
2610;SDS011;5612;51.134;17.058;2023-12-20T14:26:12;3.57;;;1.67;;
2610;SDS011;5612;51.134;17.058;2023-12-20T14:28:41;5.00;;;3.30;;
2610;SDS011;5612;51.134;17.058;2023-12-20T14:31:10;1.70;;;1.50;;
2610;SDS011;5612;51.134;17.058;2023-12-20T14:33:39;2.70;;;1.93;;
2610;SDS011;5612;51.134;17.058;2023-12-20T14:36:10;4.90;;;2.10;;
2610;SDS011;5612;51.134;17.058;2023-12-20T14:38:40;2.20;;;1.93;;
2610;SDS011;5612;51.134;17.058;2023-12-20T14:41:09;2.10;;;1.50;;
2610;SDS011;5612;51.134;17.058;2023-12-20T14:43:38;4.00;;;1.50;;
2610;SDS011;5612;51.134;17.058;2023-12-20T14:46:07;3.23;;;2.20;;
2610;SDS011;5612;51.134;17.058;2023-12-20T14:48:36;9.50;;;2.60;;
2610;SDS011;5612;51.134;17.058;2023-12-20T14:51:07;4.47;;;2.10;;
2610;SDS011;5612;51.134;17.058;2023-12-20T14:53:37;4.63;;;2.50;;
2610;SDS011;5612;51.134;17.058;2023-12-20T14:56:06;8.60;;;3.17;;
2610;SDS011;5612;51.134;17.058;2023-12-20T14:58:35;8.07;;;3.20;;
2610;SDS011;5612;51.134;17.058;2023-12-20T15:01:03;7.67;;;3.20;;
2610;SDS011;5612;51.134;17.058;2023-12-20T15:03:35;2.80;;;1.80;;
2610;SDS011;5612;51.134;17.058;2023-12-20T15:06:06;6.13;;;3.23;;
2610;SDS011;5612;51.134;17.058;2023-12-20T15:08:40;7.10;;;2.20;;
2610;SDS011;5612;51.134;17.058;2023-12-20T15:11:08;3.13;;;2.10;;
2610;SDS011;5612;51.134;17.058;2023-12-20T15:13:38;3.33;;;3.03;;
2610;SDS011;5612;51.134;17.058;2023-12-20T15:16:06;3.50;;;2.30;;